createdAt,value
2022-08-30T00:01:08.962Z,7.00
2022-08-30T00:03:49.678Z,7.90
2022-08-30T00:06:29.498Z,8.33
2022-08-30T00:09:03.718Z,8.43
2022-08-30T00:11:38.561Z,7.17
2022-08-30T00:14:11.755Z,7.07
2022-08-30T00:16:45.808Z,8.97
2022-08-30T00:19:19.487Z,10.50
2022-08-30T00:21:55.349Z,10.57
2022-08-30T00:24:28.706Z,8.10
2022-08-30T00:27:02.820Z,8.57
2022-08-30T00:29:39.436Z,6.93
2022-08-30T00:32:13.592Z,12.00
2022-08-30T00:34:48.057Z,8.33
2022-08-30T00:37:25.450Z,8.00
2022-08-30T00:39:59.391Z,8.67
2022-08-30T00:42:32.858Z,9.20
2022-08-30T00:45:14.038Z,12.03
2022-08-30T00:47:47.742Z,10.63
2022-08-30T00:50:23.636Z,11.63
2022-08-30T00:53:02.353Z,10.27
2022-08-30T00:55:35.904Z,11.43
2022-08-30T00:58:17.190Z,12.77
2022-08-30T01:00:50.969Z,9.73
2022-08-30T01:03:25.277Z,18.07
2022-08-30T01:06:00.118Z,11.77
2022-08-30T01:08:35.597Z,13.80
2022-08-30T01:11:09.219Z,16.17
2022-08-30T01:13:43.658Z,11.70
2022-08-30T01:16:17.392Z,14.77
2022-08-30T01:18:52.640Z,11.40
2022-08-30T01:21:33.187Z,9.17
2022-08-30T01:24:12.076Z,11.70
2022-08-30T01:26:46.155Z,9.63
2022-08-30T01:29:24.265Z,11.07
2022-08-30T01:31:57.495Z,11.07
2022-08-30T01:34:31.406Z,10.50
2022-08-30T01:37:05.777Z,10.47
2022-08-30T01:39:42.294Z,15.67
2022-08-30T01:42:15.735Z,13.63
2022-08-30T01:44:50.000Z,11.40
2022-08-30T01:47:24.535Z,8.17
2022-08-30T01:49:59.785Z,9.37
2022-08-30T01:52:33.527Z,6.63
2022-08-30T01:55:11.076Z,10.43
2022-08-30T01:57:48.851Z,8.83
2022-08-30T02:00:22.910Z,5.93
2022-08-30T02:02:56.712Z,7.07
2022-08-30T02:05:30.488Z,6.27
2022-08-30T02:08:05.017Z,10.90
2022-08-30T02:10:40.305Z,7.73
2022-08-30T02:13:13.503Z,9.67
2022-08-30T02:15:47.632Z,11.23
2022-08-30T02:18:21.366Z,7.97
2022-08-30T02:20:54.582Z,14.50
2022-08-30T02:23:29.607Z,12.40
2022-08-30T02:26:05.631Z,10.53
2022-08-30T02:28:42.721Z,14.80
2022-08-30T02:31:24.562Z,15.60
2022-08-30T02:33:58.405Z,13.67
2022-08-30T02:36:32.316Z,11.67
2022-08-30T02:39:05.563Z,11.97
2022-08-30T02:41:42.109Z,9.37
2022-08-30T02:44:15.650Z,14.27
2022-08-30T02:46:49.740Z,11.73
2022-08-30T02:49:33.122Z,18.47
2022-08-30T02:52:09.326Z,23.17
2022-08-30T02:54:43.027Z,19.53
2022-08-30T02:57:20.014Z,22.27
2022-08-30T02:59:54.698Z,20.77
2022-08-30T03:02:28.445Z,25.53
2022-08-30T03:05:01.838Z,21.43
2022-08-30T03:07:35.393Z,19.87
2022-08-30T03:10:10.519Z,21.87
2022-08-30T03:12:45.765Z,23.63
2022-08-30T03:15:20.188Z,21.20
2022-08-30T03:17:53.946Z,24.03
2022-08-30T03:20:27.743Z,18.83
2022-08-30T03:23:01.637Z,19.70
2022-08-30T03:25:35.505Z,24.50
2022-08-30T03:28:11.877Z,20.50
2022-08-30T03:30:45.417Z,22.73
2022-08-30T03:33:19.294Z,15.87
2022-08-30T03:36:01.504Z,20.50
2022-08-30T03:38:34.953Z,18.87
2022-08-30T03:41:09.270Z,12.23
2022-08-30T03:43:45.001Z,15.40
2022-08-30T03:46:19.409Z,12.83
2022-08-30T03:48:59.273Z,14.60
2022-08-30T03:51:36.044Z,20.27
2022-08-30T03:54:09.192Z,20.80
2022-08-30T03:56:43.252Z,18.00
2022-08-30T03:59:18.837Z,15.50
2022-08-30T04:01:52.414Z,16.27
2022-08-30T04:04:25.401Z,13.90
2022-08-30T04:07:00.407Z,11.10
2022-08-30T04:09:33.875Z,19.43
2022-08-30T04:12:07.764Z,11.50
2022-08-30T04:14:46.617Z,18.93
2022-08-30T04:17:26.417Z,12.20
2022-08-30T04:20:01.269Z,14.33
2022-08-30T04:22:35.144Z,11.37
2022-08-30T04:25:08.979Z,15.70
2022-08-30T04:27:50.108Z,15.60
2022-08-30T04:30:29.521Z,15.53
2022-08-30T04:33:03.861Z,20.03
2022-08-30T04:35:38.527Z,16.30
2022-08-30T04:38:12.334Z,23.83
2022-08-30T04:40:47.213Z,23.93
2022-08-30T04:43:20.897Z,18.90
2022-08-30T04:45:56.751Z,20.77
2022-08-30T04:48:30.532Z,20.92
2022-08-30T04:51:06.528Z,19.88
2022-08-30T04:53:40.892Z,21.27
2022-08-30T04:56:17.842Z,16.30
2022-08-30T04:58:55.737Z,14.25
2022-08-30T05:01:45.056Z,18.20
2022-08-30T05:04:19.799Z,16.83
2022-08-30T05:06:54.489Z,18.38
2022-08-30T05:09:28.335Z,18.25
2022-08-30T05:12:02.551Z,16.77
2022-08-30T05:14:36.404Z,13.00
2022-08-30T05:17:11.842Z,21.13
2022-08-30T05:19:46.510Z,19.55
2022-08-30T05:22:20.253Z,17.70
2022-08-30T05:24:53.985Z,18.73
2022-08-30T05:27:30.290Z,16.87
2022-08-30T05:30:07.707Z,20.30
2022-08-30T05:32:43.674Z,18.17
2022-08-30T05:35:24.963Z,19.70
2022-08-30T05:37:59.009Z,22.43
2022-08-30T05:40:35.570Z,22.93
2022-08-30T05:43:13.597Z,23.40
2022-08-30T05:45:47.400Z,22.20
2022-08-30T05:48:23.817Z,22.57
2022-08-30T05:51:10.951Z,24.50
2022-08-30T05:53:45.378Z,24.77
2022-08-30T05:56:20.835Z,25.03
2022-08-30T05:58:54.425Z,26.10
2022-08-30T06:01:30.454Z,23.60
2022-08-30T06:04:06.959Z,19.73
2022-08-30T06:06:43.149Z,24.17
2022-08-30T06:09:18.192Z,21.70
2022-08-30T06:11:52.289Z,23.33
2022-08-30T06:14:26.365Z,18.80
2022-08-30T06:17:00.400Z,21.43
2022-08-30T06:19:36.194Z,25.20
2022-08-30T06:22:11.548Z,26.50
2022-08-30T06:25:00.125Z,23.10
2022-08-30T06:27:34.617Z,30.47
2022-08-30T06:30:09.875Z,24.53
2022-08-30T06:35:38.136Z,22.00
2022-08-30T06:38:12.128Z,24.67
2022-08-30T06:40:45.950Z,27.87
2022-08-30T06:43:20.546Z,28.70
2022-08-30T06:45:54.645Z,28.50
2022-08-30T06:48:28.362Z,27.92
2022-08-30T06:51:07.061Z,28.50
2022-08-30T06:53:40.717Z,24.40
2022-08-30T06:56:16.999Z,26.30
2022-08-30T06:58:51.572Z,22.98
2022-08-30T07:01:26.533Z,18.02
2022-08-30T07:04:00.293Z,16.98
2022-08-30T07:06:37.975Z,18.77
2022-08-30T07:09:11.618Z,17.95
2022-08-30T07:11:48.963Z,19.48
2022-08-30T07:14:22.824Z,21.63
2022-08-30T07:16:56.727Z,21.35
2022-08-30T07:19:28.865Z,20.35
2022-08-30T07:22:03.603Z,24.50
2022-08-30T07:24:36.918Z,24.17
2022-08-30T07:27:10.834Z,22.70
2022-08-30T07:29:44.131Z,24.10
2022-08-30T07:32:18.246Z,21.98
2022-08-30T07:34:51.859Z,26.15
2022-08-30T07:37:27.806Z,25.00
2022-08-30T07:40:08.869Z,22.23
2022-08-30T07:42:43.702Z,23.25
2022-08-30T07:45:18.392Z,18.60
2022-08-30T07:47:52.055Z,20.80
2022-08-30T07:50:25.411Z,21.98
2022-08-30T07:53:00.937Z,19.33
2022-08-30T07:55:34.838Z,26.42
2022-08-30T07:58:07.968Z,23.05
2022-08-30T08:00:41.683Z,22.63
2022-08-30T08:03:15.934Z,27.60
2022-08-30T08:05:50.528Z,25.65
2022-08-30T08:08:29.440Z,27.83
2022-08-30T08:11:08.851Z,26.92
2022-08-30T08:13:52.800Z,27.80
2022-08-30T08:16:30.508Z,30.05
2022-08-30T08:19:04.389Z,25.58
2022-08-30T08:21:38.643Z,25.58
2022-08-30T08:24:13.875Z,23.77
2022-08-30T08:26:47.861Z,21.27
2022-08-30T08:29:21.029Z,23.73
2022-08-30T08:31:55.078Z,23.52
2022-08-30T08:34:28.448Z,19.98
2022-08-30T08:37:02.075Z,29.48
2022-08-30T08:39:37.564Z,21.95
2022-08-30T08:42:18.955Z,26.42
2022-08-30T08:49:00.492Z,26.52
2022-08-30T08:51:55.311Z,26.17
2022-08-30T08:54:36.377Z,31.35
2022-08-30T08:57:15.990Z,29.55
2022-08-30T08:59:50.078Z,28.83
2022-08-30T09:02:28.986Z,27.00
2022-08-30T09:05:07.201Z,28.47
2022-08-30T09:07:44.754Z,29.00
2022-08-30T09:10:40.462Z,27.50
2022-08-30T09:13:18.961Z,22.05
2022-08-30T09:15:55.171Z,23.27
2022-08-30T09:18:51.262Z,25.07
2022-08-30T09:21:31.348Z,23.83
2022-08-30T09:24:10.190Z,25.30
2022-08-30T09:26:45.315Z,27.90
2022-08-30T09:29:25.134Z,27.90
2022-08-30T09:32:16.161Z,24.63
2022-08-30T09:34:52.521Z,26.93
2022-08-30T09:37:37.533Z,27.75
2022-08-30T09:40:21.067Z,25.77
2022-08-30T09:43:11.841Z,23.23
2022-08-30T09:45:49.619Z,25.73
2022-08-30T09:48:35.238Z,32.17
2022-08-30T09:51:31.633Z,28.33
2022-08-30T09:54:18.611Z,29.20
2022-08-30T09:57:02.504Z,28.33
2022-08-30T09:59:47.333Z,33.03
2022-08-30T10:02:52.131Z,30.50
2022-08-30T10:05:34.428Z,27.73
2022-08-30T10:08:17.248Z,33.20
2022-08-30T10:11:03.273Z,37.10
2022-08-30T10:13:58.257Z,30.50
2022-08-30T10:16:45.468Z,30.90
2022-08-30T10:19:40.395Z,28.00
2022-08-30T10:22:18.105Z,28.70
2022-08-30T10:24:55.705Z,33.60
2022-08-30T10:27:34.650Z,29.40
2022-08-30T10:30:12.102Z,34.40
2022-08-30T10:32:52.381Z,32.27
2022-08-30T10:35:34.076Z,32.73
2022-08-30T10:38:19.318Z,28.63
2022-08-30T10:41:16.566Z,26.93
2022-08-30T10:43:57.824Z,31.93
2022-08-30T10:46:37.519Z,31.47
2022-08-30T10:49:16.349Z,30.00
2022-08-30T10:52:02.241Z,30.10
2022-08-30T10:54:41.060Z,32.30
2022-08-30T10:57:14.688Z,28.33
2022-08-30T10:59:52.397Z,33.13
2022-08-30T11:02:43.287Z,34.03
2022-08-30T11:05:42.620Z,35.67
2022-08-30T11:08:28.849Z,33.03
2022-08-30T11:11:13.432Z,31.23
2022-08-30T11:13:49.342Z,34.30
2022-08-30T11:16:23.159Z,34.23
2022-08-30T11:18:59.553Z,31.87
2022-08-30T11:21:39.057Z,35.93
2022-08-30T11:24:16.662Z,32.17
2022-08-30T11:27:05.582Z,29.33
2022-08-30T11:29:42.117Z,28.60
2022-08-30T11:32:28.063Z,27.80
2022-08-30T11:35:04.820Z,32.20
2022-08-30T11:37:45.092Z,31.27
2022-08-30T11:40:51.915Z,30.23
2022-08-30T11:43:58.873Z,27.47
2022-08-30T11:46:45.521Z,20.13
2022-08-30T11:49:50.978Z,18.87
2022-08-30T11:52:38.542Z,19.07
2022-08-30T11:55:55.798Z,19.33
2022-08-30T11:58:51.055Z,19.97
2022-08-30T12:01:50.826Z,18.67
2022-08-30T12:04:40.741Z,20.17
2022-08-30T12:07:35.949Z,17.70
2022-08-30T12:10:25.096Z,20.03
2022-08-30T12:12:59.663Z,18.17
2022-08-30T12:16:01.043Z,20.07
2022-08-30T12:18:44.645Z,20.37
2022-08-30T12:21:43.907Z,19.90
2022-08-30T12:24:25.552Z,22.17
2022-08-30T12:27:00.915Z,19.73
2022-08-30T12:29:35.301Z,16.53
2022-08-30T12:32:20.682Z,17.33
2022-08-30T12:35:01.126Z,20.13
2022-08-30T12:37:38.177Z,20.40
2022-08-30T12:40:19.657Z,18.40
2022-08-30T12:42:57.016Z,20.77
2022-08-30T12:45:33.039Z,14.63
2022-08-30T12:48:09.593Z,16.80
2022-08-30T12:50:52.973Z,18.40
2022-08-30T12:53:32.703Z,15.50
2022-08-30T12:56:08.782Z,16.90
2022-08-30T12:58:48.570Z,18.83
2022-08-30T13:01:32.149Z,17.67
2022-08-30T13:04:27.137Z,15.23
2022-08-30T13:07:04.282Z,18.87
2022-08-30T13:09:39.978Z,17.80
2022-08-30T13:12:15.335Z,16.70
2022-08-30T13:14:52.435Z,18.53
2022-08-30T13:17:28.525Z,17.43
2022-08-30T13:20:06.325Z,15.67
2022-08-30T13:22:43.766Z,18.17
2022-08-30T13:25:20.170Z,15.97
2022-08-30T13:27:59.935Z,19.33
2022-08-30T13:30:33.470Z,16.77
2022-08-30T13:33:07.015Z,15.47
2022-08-30T13:35:50.519Z,14.27
2022-08-30T13:38:26.128Z,17.53
2022-08-30T13:40:59.757Z,17.07
2022-08-30T13:44:09.253Z,16.43
2022-08-30T13:46:28.005Z,15.90
2022-08-30T13:52:26.836Z,15.50
2022-08-30T13:55:03.957Z,16.43
2022-08-30T13:57:55.436Z,19.30
2022-08-30T14:00:36.183Z,17.00
2022-08-30T14:03:12.342Z,18.07
2022-08-30T14:05:50.142Z,16.63
2022-08-30T14:08:46.277Z,15.93
2022-08-30T14:11:26.438Z,19.13
2022-08-30T14:14:25.158Z,17.13
2022-08-30T14:16:55.067Z,19.93
2022-08-30T14:19:28.771Z,17.37
2022-08-30T14:22:02.809Z,20.30
2022-08-30T14:24:36.869Z,19.47
2022-08-30T14:27:12.932Z,14.33
2022-08-30T14:29:50.802Z,15.20
2022-08-30T14:32:24.665Z,16.03
2022-08-30T14:34:58.304Z,12.87
2022-08-30T14:37:33.618Z,13.17
2022-08-30T14:40:08.607Z,17.27
2022-08-30T14:42:44.488Z,13.50
2022-08-30T14:45:19.497Z,18.87
2022-08-30T14:47:54.459Z,13.93
2022-08-30T14:50:28.228Z,18.80
2022-08-30T14:53:02.273Z,19.70
2022-08-30T14:55:38.426Z,16.10
2022-08-30T14:58:22.827Z,14.03
2022-08-30T15:00:56.316Z,13.30
2022-08-30T15:03:32.095Z,11.00
2022-08-30T15:06:05.564Z,14.03
2022-08-30T15:08:39.989Z,16.20
2022-08-30T15:11:15.855Z,12.60
2022-08-30T15:13:53.008Z,13.17
2022-08-30T15:16:30.805Z,11.00
2022-08-30T15:19:08.621Z,11.30
2022-08-30T15:22:05.860Z,13.93
2022-08-30T15:24:50.947Z,17.47
2022-08-30T15:27:25.735Z,12.83
2022-08-30T15:30:04.916Z,13.50
2022-08-30T15:32:40.232Z,11.73
2022-08-30T15:35:14.127Z,12.13
2022-08-30T15:37:47.490Z,11.03
2022-08-30T15:40:22.503Z,13.27
2022-08-30T15:42:56.616Z,9.00
2022-08-30T15:45:32.922Z,11.07
2022-08-30T15:48:06.926Z,11.00
2022-08-30T15:50:41.674Z,12.47
2022-08-30T15:53:17.386Z,11.57
2022-08-30T15:55:51.748Z,9.87
2022-08-30T15:58:25.854Z,8.40
2022-08-30T16:01:02.232Z,9.27
2022-08-30T16:03:38.085Z,11.40
2022-08-30T16:06:16.935Z,7.40
2022-08-30T16:08:51.656Z,12.13
2022-08-30T16:11:26.320Z,9.10
2022-08-30T16:14:02.351Z,8.47
2022-08-30T16:16:41.105Z,8.30
2022-08-30T16:19:17.295Z,9.67
2022-08-30T16:21:51.949Z,10.77
2022-08-30T16:24:27.530Z,10.87
2022-08-30T16:27:01.569Z,11.30
2022-08-30T16:29:35.532Z,7.87
2022-08-30T16:32:11.181Z,11.50
2022-08-30T16:34:45.624Z,10.93
2022-08-30T16:37:19.262Z,11.97
2022-08-30T16:39:55.708Z,10.00
2022-08-30T16:42:30.570Z,9.90
2022-08-30T16:45:10.481Z,13.07
2022-08-30T16:47:46.557Z,9.63
2022-08-30T16:50:26.102Z,9.50
2022-08-30T16:53:02.081Z,10.40
2022-08-30T16:55:37.421Z,10.47
2022-08-30T16:58:18.273Z,10.67
2022-08-30T17:00:53.985Z,7.63
2022-08-30T17:03:29.272Z,10.07
2022-08-30T17:06:04.606Z,8.13
2022-08-30T17:08:38.680Z,10.83
2022-08-30T17:11:15.229Z,11.00
2022-08-30T17:13:51.172Z,11.43
2022-08-30T17:16:28.057Z,11.07
2022-08-30T17:19:05.822Z,10.87
2022-08-30T17:21:39.398Z,12.63
2022-08-30T17:24:13.047Z,8.73
2022-08-30T17:26:46.806Z,8.50
2022-08-30T17:29:20.332Z,11.60
2022-08-30T17:31:56.010Z,10.73
2022-08-30T17:34:33.290Z,24.53
2022-08-30T17:37:07.263Z,13.13
2022-08-30T17:39:41.472Z,12.53
2022-08-30T17:42:15.272Z,8.60
2022-08-30T17:44:48.899Z,10.37
2022-08-30T17:47:22.754Z,9.63
2022-08-30T17:50:03.124Z,10.40
2022-08-30T17:52:39.952Z,11.13
2022-08-30T17:55:14.418Z,9.67
2022-08-30T17:57:48.126Z,7.20
2022-08-30T18:00:25.224Z,8.67
2022-08-30T18:02:59.250Z,8.73
2022-08-30T18:05:34.780Z,9.33
2022-08-30T18:08:12.261Z,10.13
2022-08-30T18:10:46.021Z,6.77
2022-08-30T18:13:19.106Z,8.73
2022-08-30T18:15:53.935Z,6.97
2022-08-30T18:18:29.608Z,9.80
2022-08-30T18:21:05.150Z,8.93
2022-08-30T18:23:38.306Z,6.00
2022-08-30T18:26:12.293Z,7.23
2022-08-30T18:28:46.694Z,8.37
2022-08-30T18:31:20.961Z,8.10
2022-08-30T18:33:54.961Z,7.87
2022-08-30T18:36:30.301Z,7.87
2022-08-30T18:39:05.370Z,10.10
2022-08-30T18:41:43.005Z,7.53
2022-08-30T18:47:12.078Z,10.07
2022-08-30T18:49:45.379Z,8.33
2022-08-30T18:52:20.770Z,9.47
2022-08-30T18:54:54.264Z,9.07
2022-08-30T18:57:31.939Z,8.83
2022-08-30T19:00:06.897Z,11.37
2022-08-30T19:02:40.158Z,11.23
2022-08-30T19:05:19.720Z,10.97
2022-08-30T19:07:56.816Z,13.47
2022-08-30T19:10:32.895Z,9.43
2022-08-30T19:13:07.205Z,11.63
2022-08-30T19:15:41.741Z,11.93
2022-08-30T19:18:17.190Z,10.27
2022-08-30T19:20:52.165Z,11.30
2022-08-30T19:23:34.080Z,11.93
2022-08-30T19:26:08.733Z,15.37
2022-08-30T19:28:44.989Z,15.40
2022-08-30T19:31:19.565Z,14.33
2022-08-30T19:33:53.137Z,11.97
2022-08-30T19:36:29.937Z,18.50
2022-08-30T19:39:04.621Z,18.60
2022-08-30T19:41:38.062Z,18.63
2022-08-30T19:44:11.811Z,19.57
2022-08-30T19:46:45.011Z,22.60
2022-08-30T19:49:19.061Z,19.07
2022-08-30T19:52:04.993Z,21.57
2022-08-30T19:54:41.258Z,27.73
2022-08-30T19:57:15.049Z,22.10
2022-08-30T19:59:49.455Z,19.57
2022-08-30T20:02:23.130Z,21.70
2022-08-30T20:05:01.096Z,24.40
2022-08-30T20:07:38.063Z,21.27
2022-08-30T20:10:16.803Z,22.40
2022-08-30T20:12:52.636Z,21.63
2022-08-30T20:15:27.770Z,17.13
2022-08-30T20:18:06.411Z,23.70
2022-08-30T20:20:49.717Z,20.03
2022-08-30T20:23:28.432Z,22.10
2022-08-30T20:24:29.321Z,8.07
2022-08-30T20:26:06.913Z,17.53
2022-08-30T20:28:41.028Z,21.10
2022-08-30T20:31:16.116Z,17.87
2022-08-30T20:33:50.300Z,18.20
2022-08-30T20:36:24.319Z,23.00
2022-08-30T20:38:57.842Z,18.93
2022-08-30T20:41:33.757Z,22.23
2022-08-30T20:44:07.330Z,24.67
2022-08-30T20:46:48.268Z,24.17
2022-08-30T20:49:23.158Z,21.50
2022-08-30T20:51:56.402Z,24.60
2022-08-30T20:54:30.794Z,23.73
2022-08-30T20:57:07.700Z,20.13
2022-08-30T20:59:41.724Z,22.10
2022-08-30T21:02:16.467Z,22.53
2022-08-30T21:04:50.505Z,23.83
2022-08-30T21:07:26.727Z,23.13
2022-08-30T21:10:00.198Z,21.33
2022-08-30T21:12:37.294Z,23.83
2022-08-30T21:15:33.967Z,27.27
2022-08-30T21:18:06.104Z,21.40
2022-08-30T21:20:40.235Z,18.53
2022-08-30T21:23:26.606Z,19.33
2022-08-30T21:26:00.616Z,19.87
2022-08-30T21:28:35.400Z,20.80
2022-08-30T21:31:12.102Z,21.37
2022-08-30T21:33:46.435Z,19.93
2022-08-30T21:36:36.646Z,17.03
2022-08-30T21:39:11.149Z,20.97
2022-08-30T21:41:44.564Z,20.90
2022-08-30T21:44:24.896Z,17.50
2022-08-30T21:46:59.889Z,22.83
2022-08-30T21:49:33.461Z,24.87
2022-08-30T21:52:06.936Z,18.97
2022-08-30T21:54:40.668Z,19.87
2022-08-30T21:57:14.754Z,23.50
2022-08-30T21:59:52.612Z,21.60
2022-08-30T22:02:26.393Z,22.13
2022-08-30T22:05:00.276Z,20.53
2022-08-30T22:07:33.805Z,21.87
2022-08-30T22:10:06.913Z,23.70
2022-08-30T22:12:41.489Z,19.07
2022-08-30T22:15:17.224Z,20.03
2022-08-30T22:17:50.896Z,21.97
2022-08-30T22:20:24.632Z,23.80
2022-08-30T22:23:01.061Z,22.83
2022-08-30T22:25:34.415Z,22.03
2022-08-30T22:28:07.565Z,20.87
2022-08-30T22:30:43.187Z,22.57
2022-08-30T22:33:17.160Z,21.47
2022-08-30T22:35:50.284Z,23.43
2022-08-30T22:38:23.934Z,19.80
2022-08-30T22:40:58.146Z,21.03
2022-08-30T22:43:31.591Z,18.90
2022-08-30T22:46:10.845Z,17.27
2022-08-30T22:48:46.621Z,20.67
2022-08-30T22:51:22.411Z,19.17
2022-08-30T22:53:55.690Z,22.67
2022-08-30T22:56:31.101Z,21.07
2022-08-30T22:59:04.531Z,18.87
2022-08-30T23:01:42.070Z,18.57
2022-08-30T23:04:16.339Z,20.60
2022-08-30T23:06:50.262Z,19.40
2022-08-30T23:09:24.039Z,17.00
2022-08-30T23:11:57.768Z,21.10
2022-08-30T23:14:31.041Z,16.23
2022-08-30T23:17:06.591Z,19.27
2022-08-30T23:19:40.170Z,18.10
2022-08-30T23:22:14.743Z,15.07
2022-08-30T23:25:04.034Z,17.73
2022-08-30T23:28:02.294Z,16.43
2022-08-30T23:30:52.281Z,16.10
2022-08-30T23:33:43.937Z,19.53
2022-08-30T23:36:35.706Z,15.77
2022-08-30T23:39:25.363Z,21.20
2022-08-30T23:55:04.581Z,15.80
